メインページ
METAR-TAF:

METAR-TAF

空港 :

Edmonton/Villeneuve Airport

Villeneuve, アルバータ州, カナダ

緯度: 53-40-06N, 経度: 113-51-08W, 海抜: 688m

現時点の気象観測

当レポートは59分前の02:00(UTC)に作成
の風 5kt
気温 17°C
湿度 68%
気圧 1010 hPa
視程: 14.5km
高度13000ftの雲はほとんどない
高度24000ftの雲は散在している

METAR: CZVL 190200Z AUTO 35005KT 9SM FEW130 SCT240 17/11 A2983 RMK SLP105 DENSITY ALT 3100FT

時間: 20:59 (02:59 UTC)

予報

当レポートは3時間21分前の23:38(UTC)に作成
予報は19日の 00時(UTC)から 19日の 12時(UTC)まで有効
西/北西の風 15kt、最大25ktの突風を伴う
視程: 10km
高度6000ftの雲は散在している
高度22000ftの千切れ雲あり
19日の 00時(UTC)から 19日の 04時(UTC)まで一時的に
視程: 10km
高度6000ftの千切れ雲あり, 積乱雲.
高度22000ftの千切れ雲あり
近辺で激しい雷雨
19日の 00時(UTC)から 19日の 02時(UTC)まで徐々に
変向風 3kt
19日の 0400時(UTC)から
変向風 3kt
視程: 10km
高度6000ftの千切れ雲あり
19日の 04時(UTC)から 19日の 10時(UTC)まで一時的に
高度6000ftの雲は散在している
高度25000ftの千切れ雲あり
19日の 1000時(UTC)から
北西の風 12kt、最大22ktの突風を伴う
視程: 10km
高度1500ftの雲は散在している
高度4000ftの曇り
小雨

TAF: CZVL 182338Z 1900/1912 30015G25KT P6SM SCT060 BKN220 TEMPO 1900/1904 P6SM VCTS BKN060CB BKN220 BECMG 1900/1902 VRB03KT FM190400 VRB03KT P6SM BKN060 TEMPO 1904/1910 SCT060 BKN250 FM191000 32012G22KT P6SM -RA SCT015 OVC040 RMK FCST BASED ON AUTO OBS. NXT FCST BY 190600Z

4,000以上の空港の気象観測と天気予報(METAR報とTAF報)

利用可能な観測所は地図上に黄色い丸と赤い丸で示す。

丸の上にカーソルを重ねると観測所名を参照できる。

次にクリックすると気象観測と天気予報を参照できる。

マップの切り替え:黒色「×」印の緑ボタンをクリックして拡大、「-」印の緑ボタンをクリックして縮小、緑色の三角印をクリックして隣りの地図に切り替え


METAR-TAF: